Time;durP1;ratioP1;P1;durP2;ratioP2;P2;SDS_P1;SDS_P2;PMS_P1;PMS_P2;Temp;Humidity;BMP_temperature;BMP_pressure;BME280_temperature;BME280_humidity;BME280_pressure;Samples;Min_cycle;Max_cycle;Signal;HPM_P1;HPM_P2
2023/01/20 00:01:22;;;;;;;6.20;2.20;;;1.80;99.90;;;;;;5045314;28;20991;-61
2023/01/20 00:03:52;;;;;;;8.67;2.57;;;1.80;99.90;;;;;;5050045;28;20489;-61
2023/01/20 00:06:20;;;;;;;4.67;1.80;;;1.80;99.90;;;;;;5038678;28;20479;-61
2023/01/20 00:08:51;;;;;;;6.10;2.23;;;1.80;99.90;;;;;;5031998;28;20983;-61
2023/01/20 00:11:20;;;;;;;6.13;2.10;;;1.70;99.90;;;;;;5035384;28;20483;-61
2023/01/20 00:13:52;;;;;;;8.07;2.53;;;1.70;99.90;;;;;;5035969;28;20476;-61
2023/01/20 00:16:21;;;;;;;7.87;2.63;;;1.90;99.90;;;;;;5036082;28;20527;-61
2023/01/20 00:18:49;;;;;;;7.07;2.80;;;1.80;99.90;;;;;;5035944;28;20463;-61
2023/01/20 00:21:17;;;;;;;8.37;2.57;;;1.80;99.90;;;;;;5035620;28;20478;-60
2023/01/20 00:23:46;;;;;;;7.20;2.30;;;1.70;99.90;;;;;;5035373;28;20464;-61
2023/01/20 00:26:16;;;;;;;5.47;2.50;;;1.80;99.90;;;;;;5035579;28;20974;-61
2023/01/20 00:28:45;;;;;;;4.17;2.00;;;1.70;99.90;;;;;;5047808;28;20485;-61
2023/01/20 00:31:16;;;;;;;6.13;2.40;;;1.70;99.90;;;;;;5047488;28;20482;-61
2023/01/20 00:33:46;;;;;;;4.00;2.07;;;1.80;99.90;;;;;;5044766;28;20465;-61
2023/01/20 00:36:15;;;;;;;8.13;2.67;;;1.70;99.90;;;;;;5055524;28;20474;-61
2023/01/20 00:38:43;;;;;;;6.77;2.50;;;1.60;99.90;;;;;;5055148;28;20460;-61
2023/01/20 00:41:12;;;;;;;8.23;2.10;;;1.60;99.90;;;;;;5055531;28;21009;-61
2023/01/20 00:43:40;;;;;;;6.17;3.10;;;1.70;99.90;;;;;;5055095;28;20943;-61
2023/01/20 00:46:08;;;;;;;7.73;2.90;;;1.70;99.90;;;;;;5055041;28;20487;-61
2023/01/20 00:48:38;;;;;;;6.17;2.20;;;1.70;99.90;;;;;;5054974;28;20468;-61
2023/01/20 00:51:08;;;;;;;4.43;2.33;;;1.60;99.90;;;;;;5055042;28;20532;-61
2023/01/20 00:53:36;;;;;;;6.80;2.67;;;1.70;99.90;;;;;;5054778;28;20792;-61
2023/01/20 00:56:05;;;;;;;9.20;3.00;;;1.70;99.90;;;;;;5052472;28;20534;-61
2023/01/20 00:58:33;;;;;;;6.50;2.93;;;1.70;99.90;;;;;;5035987;28;20845;-61
2023/01/20 01:01:01;;;;;;;4.47;2.70;;;1.60;99.90;;;;;;5045097;28;20971;-61
2023/01/20 01:03:30;;;;;;;4.97;2.73;;;1.60;99.90;;;;;;5052585;28;20814;-61
2023/01/20 01:06:08;;;;;;;5.10;2.57;;;1.50;99.90;;;;;;5054478;28;20483;-61
2023/01/20 01:08:36;;;;;;;6.87;2.93;;;1.50;99.90;;;;;;5054804;28;20459;-61
2023/01/20 01:11:05;;;;;;;5.20;2.97;;;1.50;99.90;;;;;;5054893;28;20466;-61
2023/01/20 01:13:34;;;;;;;6.57;3.10;;;1.60;99.90;;;;;;5037080;28;20496;-61
2023/01/20 01:16:02;;;;;;;5.00;2.97;;;1.50;99.90;;;;;;5034654;28;20471;-61
2023/01/20 01:18:30;;;;;;;5.67;3.10;;;1.50;99.90;;;;;;5034513;28;20468;-61
2023/01/20 01:20:59;;;;;;;6.00;3.23;;;1.50;99.90;;;;;;5034325;28;20456;-61
2023/01/20 01:23:28;;;;;;;8.47;3.50;;;1.50;99.90;;;;;;5034117;28;20548;-61
2023/01/20 01:25:56;;;;;;;8.80;3.30;;;1.50;99.90;;;;;;5034308;28;20492;-61
2023/01/20 01:28:24;;;;;;;7.70;3.90;;;1.50;99.90;;;;;;5040495;28;20460;-61
2023/01/20 01:30:52;;;;;;;7.90;4.00;;;1.40;99.90;;;;;;5045371;28;20835;-61
2023/01/20 01:33:20;;;;;;;7.70;4.30;;;1.50;99.90;;;;;;5052392;28;20857;-61
2023/01/20 01:35:55;;;;;;;9.10;4.17;;;1.50;99.90;;;;;;5054431;28;20479;-61
2023/01/20 01:38:23;;;;;;;9.50;4.70;;;1.50;99.90;;;;;;5054449;28;20457;-61
2023/01/20 01:40:54;;;;;;;11.60;5.23;;;1.50;99.90;;;;;;5054087;28;20463;-61
2023/01/20 01:43:24;;;;;;;10.73;5.00;;;1.50;99.90;;;;;;5054051;28;20470;-61
2023/01/20 01:45:53;;;;;;;11.20;5.63;;;1.40;99.90;;;;;;5054229;28;20487;-61
2023/01/20 01:48:23;;;;;;;10.40;5.70;;;1.30;99.90;;;;;;5050778;28;20469;-61
2023/01/20 01:50:54;;;;;;;8.93;5.93;;;1.30;99.90;;;;;;5053862;28;20539;-61
2023/01/20 01:53:23;;;;;;;13.93;7.70;;;1.30;99.90;;;;;;5053976;28;20471;-61
2023/01/20 01:55:57;;;;;;;10.87;7.23;;;1.30;99.90;;;;;;5054039;28;20953;-62
2023/01/20 01:58:29;;;;;;;14.80;7.63;;;1.30;99.90;;;;;;5051386;28;20470;-61
2023/01/20 02:00:58;;;;;;;12.53;7.77;;;1.30;99.90;;;;;;5045106;28;20479;-62
2023/01/20 02:03:28;;;;;;;12.97;7.57;;;1.20;99.90;;;;;;5045390;28;20577;-61
2023/01/20 02:05:57;;;;;;;13.10;7.87;;;1.30;99.90;;;;;;5068757;28;20983;-62
2023/01/20 02:08:26;;;;;;;14.40;8.70;;;1.30;99.90;;;;;;5053853;28;20479;-61
2023/01/20 02:10:55;;;;;;;13.60;9.23;;;1.30;99.90;;;;;;5053779;28;20463;-62
2023/01/20 02:13:23;;;;;;;16.60;9.60;;;1.40;99.90;;;;;;5053500;28;20981;-61
2023/01/20 02:15:58;;;;;;;14.97;8.93;;;1.30;99.90;;;;;;5053692;28;20471;-61
2023/01/20 02:18:42;;;;;;;14.13;9.63;;;1.30;99.90;;;;;;5053486;28;20474;-60
2023/01/20 02:21:46;;;;;;;20.40;10.60;;;1.30;99.90;;;;;;5053583;28;20475;-61
2023/01/20 02:24:50;;;;;;;15.77;10.33;;;1.30;99.90;;;;;;5053487;28;20463;-62
2023/01/20 02:27:37;;;;;;;17.37;10.60;;;1.30;99.90;;;;;;5048820;28;20958;-61
2023/01/20 02:30:21;;;;;;;20.60;11.43;;;1.20;99.90;;;;;;5044693;28;20471;-61
2023/01/20 02:32:57;;;;;;;18.30;12.10;;;1.20;99.90;;;;;;5050823;28;20475;-61
2023/01/20 02:35:33;;;;;;;17.53;11.50;;;1.20;99.90;;;;;;5052855;28;20880;-62
2023/01/20 02:38:14;;;;;;;16.27;12.03;;;1.20;99.90;;;;;;5053289;28;20842;-61
2023/01/20 02:40:50;;;;;;;17.57;12.07;;;1.20;99.90;;;;;;5053282;28;20469;-61
2023/01/20 02:43:23;;;;;;;19.60;13.00;;;1.30;99.90;;;;;;5052896;28;20472;-61
2023/01/20 02:45:59;;;;;;;19.43;12.10;;;1.30;99.90;;;;;;5053199;28;21000;-61
2023/01/20 02:48:35;;;;;;;19.20;13.30;;;1.20;99.90;;;;;;5053022;28;20969;-62
2023/01/20 02:51:09;;;;;;;18.40;13.50;;;1.30;99.90;;;;;;5053102;28;20474;-62
2023/01/20 02:53:42;;;;;;;22.20;14.50;;;1.20;99.90;;;;;;5052471;28;20460;-61
2023/01/20 02:56:12;;;;;;;20.70;14.33;;;1.20;99.90;;;;;;5053025;28;20473;-62
2023/01/20 02:58:46;;;;;;;22.77;15.37;;;1.30;99.90;;;;;;5048000;28;20478;-61
2023/01/20 03:01:18;;;;;;;26.97;15.70;;;1.20;99.90;;;;;;5037442;28;20474;-61
2023/01/20 03:03:52;;;;;;;24.70;15.63;;;1.20;99.90;;;;;;5040995;28;20459;-61
2023/01/20 03:06:25;;;;;;;27.17;16.80;;;1.20;99.90;;;;;;5032450;28;20492;-61
2023/01/20 03:08:55;;;;;;;26.03;17.50;;;1.20;99.90;;;;;;5032994;28;20469;-62
2023/01/20 03:11:23;;;;;;;25.53;16.90;;;1.30;99.90;;;;;;5032831;28;20467;-61
2023/01/20 03:13:58;;;;;;;24.60;17.13;;;1.20;99.90;;;;;;5032947;28;20463;-62
2023/01/20 03:16:27;;;;;;;24.80;17.17;;;1.20;99.90;;;;;;5032430;28;20471;-61
2023/01/20 03:18:57;;;;;;;27.87;19.03;;;1.20;99.90;;;;;;5032902;28;20471;-61
2023/01/20 03:21:25;;;;;;;33.53;22.10;;;1.30;99.90;;;;;;5032107;28;20463;-61
2023/01/20 03:23:55;;;;;;;34.43;22.60;;;1.30;99.90;;;;;;5032382;28;20471;-61
2023/01/20 03:26:23;;;;;;;35.20;22.53;;;1.30;99.90;;;;;;5032704;28;20998;-62
2023/01/20 03:28:53;;;;;;;38.17;25.27;;;1.30;99.90;;;;;;5044763;28;20470;-61
2023/01/20 03:31:26;;;;;;;40.60;24.77;;;1.20;99.90;;;;;;5045497;28;20479;-61
2023/01/20 03:33:58;;;;;;;42.93;26.23;;;1.20;99.90;;;;;;5050487;28;20498;-62
2023/01/20 03:36:29;;;;;;;42.47;28.17;;;1.30;99.90;;;;;;5052049;28;20563;-61
2023/01/20 03:38:59;;;;;;;44.63;29.23;;;1.30;99.90;;;;;;5052289;28;20462;-62
2023/01/20 03:41:35;;;;;;;41.73;27.43;;;1.30;99.90;;;;;;5052405;28;20513;-62
2023/01/20 03:44:11;;;;;;;45.77;28.30;;;1.30;99.90;;;;;;5052626;28;21008;-61
2023/01/20 03:46:44;;;;;;;50.33;30.00;;;1.30;99.90;;;;;;5052794;28;20483;-61
2023/01/20 03:49:20;;;;;;;48.30;27.60;;;1.30;99.90;;;;;;5056221;28;20814;-61
2023/01/20 03:51:58;;;;;;;45.87;28.63;;;1.30;99.90;;;;;;5055994;28;20462;-61
2023/01/20 03:54:31;;;;;;;50.53;29.57;;;1.20;99.90;;;;;;5050949;28;20481;-61
2023/01/20 03:57:03;;;;;;;54.70;29.87;;;1.20;99.90;;;;;;5035783;28;20455;-61
2023/01/20 03:59:34;;;;;;;50.20;30.70;;;1.20;99.90;;;;;;5035173;28;20482;-61
2023/01/20 04:02:04;;;;;;;50.73;29.60;;;1.30;99.90;;;;;;5035988;28;20508;-61
2023/01/20 04:04:38;;;;;;;52.27;28.53;;;1.30;99.90;;;;;;5055895;28;20810;-61
2023/01/20 04:07:07;;;;;;;49.73;31.43;;;1.30;99.90;;;;;;5044642;28;20490;-61
2023/01/20 04:09:40;;;;;;;53.60;30.47;;;1.30;99.90;;;;;;5032748;28;20456;-62
2023/01/20 04:12:09;;;;;;;47.83;27.90;;;1.30;99.90;;;;;;5035742;28;20483;-61
2023/01/20 04:14:37;;;;;;;55.70;30.83;;;1.30;99.90;;;;;;5032773;28;20479;-61
2023/01/20 04:17:06;;;;;;;58.50;30.77;;;1.40;99.90;;;;;;5035570;28;20463;-61
2023/01/20 04:19:36;;;;;;;55.03;31.50;;;1.40;99.90;;;;;;5035450;28;20467;-61
2023/01/20 04:22:09;;;;;;;57.40;32.07;;;1.50;99.90;;;;;;5035525;28;20467;-61
2023/01/20 04:24:42;;;;;;;53.60;31.73;;;1.40;99.90;;;;;;5032840;28;20463;-61
2023/01/20 04:27:10;;;;;;;53.57;29.63;;;1.30;99.90;;;;;;5035379;28;21005;-61
2023/01/20 04:29:40;;;;;;;55.50;31.37;;;1.30;99.90;;;;;;5034315;28;20959;-61
2023/01/20 04:32:10;;;;;;;56.88;38.38;;;1.40;99.90;;;;;;5035353;28;20793;-61
2023/01/20 04:34:40;;;;;;;51.70;32.43;;;1.40;99.90;;;;;;5055149;28;20224;-61
2023/01/20 04:37:08;;;;;;;48.63;29.47;;;1.40;99.90;;;;;;5055515;28;20466;-61
2023/01/20 04:39:36;;;;;;;50.83;29.53;;;1.40;99.90;;;;;;5055155;28;20941;-61
2023/01/20 04:42:04;;;;;;;47.77;27.47;;;1.40;99.90;;;;;;5055264;28;20561;-61
2023/01/20 04:44:32;;;;;;;53.20;30.77;;;1.40;99.90;;;;;;5055095;28;20451;-61
2023/01/20 04:47:00;;;;;;;48.47;29.50;;;1.30;99.90;;;;;;5055025;28;20861;-61
2023/01/20 04:49:28;;;;;;;54.90;29.77;;;1.30;99.90;;;;;;5055238;28;20462;-61
2023/01/20 04:51:57;;;;;;;56.00;29.43;;;1.30;99.90;;;;;;5055612;28;20470;-61
2023/01/20 04:54:25;;;;;;;53.70;30.60;;;1.30;99.90;;;;;;5055025;28;20478;-61
2023/01/20 04:56:53;;;;;;;53.47;29.77;;;1.30;99.90;;;;;;5039620;28;20465;-61
2023/01/20 04:59:21;;;;;;;56.70;29.70;;;1.30;99.90;;;;;;5043037;28;20463;-62
2023/01/20 05:01:49;;;;;;;54.67;30.37;;;1.40;99.90;;;;;;5036931;28;20476;-61
2023/01/20 05:04:18;;;;;;;56.73;32.33;;;1.40;99.90;;;;;;5047942;28;20470;-61
2023/01/20 05:06:46;;;;;;;57.00;31.43;;;1.40;99.90;;;;;;5054709;28;21487;-61
2023/01/20 05:09:16;;;;;;;56.03;30.10;;;1.40;99.90;;;;;;5054971;28;20823;-61
2023/01/20 05:11:44;;;;;;;55.23;30.40;;;1.50;99.90;;;;;;5054717;28;20475;-61
2023/01/20 05:14:13;;;;;;;54.17;30.10;;;1.40;99.90;;;;;;5054951;28;20458;-61
2023/01/20 05:16:41;;;;;;;52.30;28.47;;;1.40;99.90;;;;;;5054706;28;20901;-61
2023/01/20 05:19:11;;;;;;;52.60;28.83;;;1.40;99.90;;;;;;5054530;28;20501;-61
2023/01/20 05:21:41;;;;;;;58.30;32.07;;;1.40;99.90;;;;;;5054592;28;20473;-61
2023/01/20 05:24:09;;;;;;;57.17;31.57;;;1.40;99.90;;;;;;5054514;28;20462;-61
2023/01/20 05:26:39;;;;;;;50.73;29.37;;;1.40;99.90;;;;;;5041904;28;20476;-62
2023/01/20 05:29:08;;;;;;;57.73;30.93;;;1.40;99.90;;;;;;5042438;28;20467;-61
2023/01/20 05:31:37;;;;;;;53.70;29.87;;;1.40;99.90;;;;;;5049290;28;20479;-61
2023/01/20 05:34:05;;;;;;;52.37;29.83;;;1.40;99.90;;;;;;5052023;28;20506;-61
2023/01/20 05:36:33;;;;;;;49.53;28.63;;;1.50;99.90;;;;;;5049521;28;20473;-61
2023/01/20 05:39:01;;;;;;;55.20;30.17;;;1.50;99.90;;;;;;5054169;28;20992;-61
2023/01/20 05:41:30;;;;;;;54.40;30.00;;;1.50;99.90;;;;;;5046986;28;20481;-61
2023/01/20 05:43:59;;;;;;;48.40;26.77;;;1.50;99.90;;;;;;5034024;28;20885;-61
2023/01/20 05:46:27;;;;;;;49.33;28.80;;;1.50;99.90;;;;;;5033643;28;20971;-61
2023/01/20 05:48:55;;;;;;;51.17;29.17;;;1.50;99.90;;;;;;5048510;28;20487;-61
2023/01/20 05:51:24;;;;;;;49.23;28.13;;;1.50;99.90;;;;;;5054111;28;20484;-61
2023/01/20 05:53:52;;;;;;;53.17;28.50;;;1.50;99.90;;;;;;5050733;28;20487;-61
2023/01/20 05:56:20;;;;;;;49.20;28.27;;;1.40;99.90;;;;;;5053121;28;20466;-61
2023/01/20 05:58:49;;;;;;;51.57;28.50;;;1.40;99.90;;;;;;5041984;28;20837;-61
2023/01/20 06:01:18;;;;;;;47.73;26.33;;;1.50;99.90;;;;;;5034937;28;20476;-61
2023/01/20 06:03:47;;;;;;;49.90;28.70;;;1.40;99.90;;;;;;5039705;28;20518;-61
2023/01/20 06:06:17;;;;;;;47.67;27.10;;;1.50;99.90;;;;;;5040922;28;20476;-61
2023/01/20 06:08:45;;;;;;;48.27;27.07;;;1.50;99.90;;;;;;5033076;28;20499;-61
2023/01/20 06:11:14;;;;;;;47.50;26.20;;;1.60;99.90;;;;;;5033422;28;20472;-61
2023/01/20 06:13:42;;;;;;;41.27;25.30;;;1.60;99.90;;;;;;5033940;28;20547;-61
2023/01/20 06:16:10;;;;;;;41.97;25.03;;;1.70;99.90;;;;;;5033801;28;20464;-61
2023/01/20 06:18:39;;;;;;;43.87;25.63;;;1.60;99.90;;;;;;5032262;28;20475;-61
2023/01/20 06:21:07;;;;;;;42.10;24.00;;;1.60;99.90;;;;;;5033343;28;20472;-61
2023/01/20 06:23:35;;;;;;;39.77;22.90;;;1.70;99.90;;;;;;5032877;28;20463;-61
2023/01/20 06:26:05;;;;;;;41.40;23.53;;;1.70;99.90;;;;;;5032998;28;20469;-60
2023/01/20 06:28:34;;;;;;;41.13;23.93;;;1.70;99.90;;;;;;5038815;28;20830;-61
2023/01/20 06:31:04;;;;;;;37.97;22.13;;;1.70;99.90;;;;;;5041754;28;20457;-61
2023/01/20 06:33:33;;;;;;;37.47;22.30;;;1.60;99.90;;;;;;5045757;28;20470;-61
2023/01/20 06:36:03;;;;;;;42.80;24.10;;;1.70;99.90;;;;;;5041482;28;20752;-61
2023/01/20 06:38:33;;;;;;;44.77;23.27;;;1.70;99.90;;;;;;5032599;28;20470;-61
2023/01/20 06:41:03;;;;;;;37.17;22.57;;;1.60;99.90;;;;;;5033203;28;20481;-61
2023/01/20 06:43:32;;;;;;;37.50;22.70;;;1.60;99.90;;;;;;5032963;28;20473;-61
2023/01/20 06:46:01;;;;;;;39.43;22.57;;;1.60;99.90;;;;;;5032940;28;20502;-61
2023/01/20 06:48:30;;;;;;;35.43;21.73;;;1.60;99.90;;;;;;5032931;28;20571;-61
2023/01/20 06:51:03;;;;;;;36.63;22.37;;;1.60;99.90;;;;;;5033019;28;21057;-62
2023/01/20 06:53:31;;;;;;;40.47;23.67;;;1.60;99.90;;;;;;5032901;28;20479;-61
2023/01/20 06:56:00;;;;;;;38.70;24.53;;;1.60;99.90;;;;;;5033161;28;20462;-61
2023/01/20 06:58:31;;;;;;;39.00;24.17;;;1.50;99.90;;;;;;5038573;28;20459;-61
2023/01/20 07:01:05;;;;;;;38.90;22.77;;;1.60;99.90;;;;;;5036230;28;20483;-61
2023/01/20 07:03:33;;;;;;;40.07;23.63;;;1.70;99.90;;;;;;5045535;28;21053;-61
2023/01/20 07:06:05;;;;;;;37.97;23.37;;;1.80;99.90;;;;;;5044589;28;20471;-61
2023/01/20 07:08:33;;;;;;;37.47;22.00;;;1.70;99.90;;;;;;5052305;28;20487;-61
2023/01/20 07:11:01;;;;;;;39.20;22.40;;;1.70;99.90;;;;;;5052827;28;20471;-61
2023/01/20 07:13:29;;;;;;;38.07;22.53;;;1.70;99.90;;;;;;5052663;28;20472;-61
2023/01/20 07:15:57;;;;;;;38.57;24.27;;;1.70;99.90;;;;;;5038433;28;20465;-61
2023/01/20 07:18:25;;;;;;;39.87;24.13;;;1.70;99.90;;;;;;5032804;28;20473;-61
2023/01/20 07:20:54;;;;;;;35.67;21.60;;;1.70;99.90;;;;;;5031985;28;20832;-61
2023/01/20 07:23:24;;;;;;;37.70;22.90;;;1.70;99.90;;;;;;5032810;28;21006;-61
2023/01/20 07:25:58;;;;;;;38.23;21.33;;;1.60;99.90;;;;;;5032345;28;20464;-61
2023/01/20 07:28:26;;;;;;;35.80;22.73;;;1.70;99.90;;;;;;5042562;28;20480;-62
2023/01/20 07:30:54;;;;;;;39.77;23.07;;;1.60;99.90;;;;;;5043851;28;20816;-62
2023/01/20 07:33:22;;;;;;;30.87;18.87;;;1.60;99.90;;;;;;5052542;28;20517;-62
2023/01/20 07:35:52;;;;;;;36.93;22.93;;;1.70;99.90;;;;;;5044243;28;20550;-61
2023/01/20 07:38:21;;;;;;;35.90;21.40;;;1.60;99.90;;;;;;5042172;28;20955;-61
2023/01/20 07:40:50;;;;;;;36.60;23.00;;;1.60;99.90;;;;;;5032524;28;21030;-61
2023/01/20 07:43:18;;;;;;;35.87;22.23;;;1.70;99.90;;;;;;5032345;28;20472;-62
2023/01/20 07:45:46;;;;;;;33.07;20.80;;;1.60;99.90;;;;;;5032242;28;20469;-62
2023/01/20 07:48:14;;;;;;;33.73;21.97;;;1.70;99.90;;;;;;5032522;28;20477;-61
2023/01/20 07:50:42;;;;;;;33.30;20.07;;;1.70;99.90;;;;;;5032178;28;20460;-61
2023/01/20 07:53:10;;;;;;;33.87;21.40;;;1.80;99.90;;;;;;5031295;28;20562;-61
2023/01/20 07:55:38;;;;;;;33.23;20.90;;;1.80;99.90;;;;;;5031766;28;20527;-61
2023/01/20 07:58:08;;;;;;;30.93;18.43;;;1.80;99.90;;;;;;5039481;28;20570;-61
2023/01/20 08:00:36;;;;;;;33.20;21.17;;;1.80;99.90;;;;;;5044077;28;20474;-61
2023/01/20 08:03:04;;;;;;;32.43;20.07;;;1.80;99.90;;;;;;5045728;28;20813;-61
2023/01/20 08:05:32;;;;;;;33.50;20.00;;;1.80;99.90;;;;;;5043541;28;20465;-61
2023/01/20 08:08:00;;;;;;;30.10;17.57;;;1.80;99.90;;;;;;5052038;28;20464;-61
2023/01/20 08:10:28;;;;;;;34.83;20.53;;;1.80;99.90;;;;;;5052140;28;20890;-61
2023/01/20 08:12:57;;;;;;;34.07;18.67;;;1.80;99.90;;;;;;5051939;28;20468;-62
2023/01/20 08:15:27;;;;;;;32.53;19.23;;;1.80;99.90;;;;;;5052226;28;20958;-61
2023/01/20 08:17:55;;;;;;;32.90;19.20;;;1.80;99.90;;;;;;5052053;28;20970;-61
2023/01/20 08:20:23;;;;;;;30.77;17.90;;;1.80;99.90;;;;;;5052016;28;20460;-61
2023/01/20 08:22:51;;;;;;;28.17;17.87;;;1.80;99.90;;;;;;5052211;28;20564;-61
2023/01/20 08:25:19;;;;;;;30.97;18.70;;;1.90;99.90;;;;;;5051691;28;20475;-61
2023/01/20 08:27:49;;;;;;;29.70;18.03;;;1.90;99.90;;;;;;5021926;28;20966;-61
2023/01/20 08:30:17;;;;;;;28.43;18.10;;;1.90;99.90;;;;;;5043335;28;20487;-61
2023/01/20 08:32:47;;;;;;;30.97;18.90;;;1.90;99.90;;;;;;5048248;28;20985;-61
2023/01/20 08:35:15;;;;;;;31.43;19.27;;;1.90;99.90;;;;;;5047284;28;20981;-61
2023/01/20 08:37:43;;;;;;;32.73;20.27;;;1.90;99.90;;;;;;5055253;28;20878;-61
2023/01/20 08:40:12;;;;;;;29.30;18.13;;;1.90;99.90;;;;;;5055612;28;20464;-61
2023/01/20 08:42:40;;;;;;;30.70;18.23;;;2.00;99.90;;;;;;5055127;28;20455;-62
2023/01/20 08:45:09;;;;;;;30.53;18.90;;;1.90;99.90;;;;;;5055216;28;20463;-61
2023/01/20 08:47:38;;;;;;;29.20;18.17;;;1.90;99.90;;;;;;5055343;28;20952;-62
2023/01/20 08:50:09;;;;;;;29.07;17.90;;;2.00;99.90;;;;;;5055287;28;20491;-60
2023/01/20 08:52:37;;;;;;;31.50;19.90;;;2.00;99.90;;;;;;5054936;28;20846;-61
2023/01/20 08:55:06;;;;;;;28.30;18.20;;;2.10;99.90;;;;;;5054968;28;20491;-61
2023/01/20 08:57:34;;;;;;;29.77;17.87;;;2.20;99.90;;;;;;5039261;28;20468;-61
2023/01/20 09:00:04;;;;;;;29.10;18.33;;;2.30;99.90;;;;;;5046709;28;20464;-61
2023/01/20 09:02:32;;;;;;;30.03;19.30;;;2.30;99.90;;;;;;5054343;28;20480;-61
2023/01/20 09:05:00;;;;;;;29.03;18.07;;;2.30;99.90;;;;;;5046431;28;20473;-61
2023/01/20 09:07:30;;;;;;;31.93;18.63;;;2.30;99.90;;;;;;5054898;28;20463;-61
2023/01/20 09:09:58;;;;;;;26.30;17.17;;;2.30;99.90;;;;;;5054963;28;21090;-61
2023/01/20 09:12:26;;;;;;;29.90;17.83;;;2.30;99.90;;;;;;5054535;28;20472;-62
2023/01/20 09:14:54;;;;;;;28.07;16.50;;;2.30;99.90;;;;;;5055118;28;20986;-61
2023/01/20 09:17:22;;;;;;;28.87;17.43;;;2.30;99.90;;;;;;5054497;28;20460;-61
2023/01/20 09:19:50;;;;;;;27.07;17.90;;;2.50;99.90;;;;;;5054877;28;20982;-61
2023/01/20 09:22:18;;;;;;;27.80;17.20;;;2.50;99.90;;;;;;5054784;28;20522;-61
2023/01/20 09:24:48;;;;;;;25.13;16.50;;;2.50;99.90;;;;;;5054379;28;20476;-61
2023/01/20 09:27:16;;;;;;;27.03;16.87;;;2.50;99.90;;;;;;5036455;28;21003;-61
2023/01/20 09:29:44;;;;;;;26.33;16.87;;;2.50;99.90;;;;;;5035688;28;20505;-62
2023/01/20 09:32:14;;;;;;;23.77;15.23;;;2.40;99.90;;;;;;5033461;28;20471;-61
2023/01/20 09:34:42;;;;;;;27.07;15.40;;;2.60;99.90;;;;;;5042642;28;20953;-61
2023/01/20 09:45:52;;;;;;;29.00;16.77;;;2.60;99.90;;;;;;5019091;28;20481;-61
2023/01/20 09:54:14;;;;;;;24.17;15.63;;;2.80;99.90;;;;;;5033987;28;20480;-61
2023/01/20 09:56:47;;;;;;;28.27;17.30;;;2.70;99.90;;;;;;5034022;28;20479;-61
2023/01/20 09:59:22;;;;;;;27.50;16.97;;;2.70;99.90;;;;;;5039307;28;20980;-61
2023/01/20 10:01:52;;;;;;;25.87;16.43;;;2.80;99.90;;;;;;5032924;28;20476;-61
2023/01/20 10:04:25;;;;;;;24.00;15.57;;;2.70;99.90;;;;;;5044620;28;20466;-61
2023/01/20 10:06:58;;;;;;;24.03;14.90;;;2.70;99.90;;;;;;5036147;28;20962;-61
2023/01/20 10:09:31;;;;;;;25.50;16.37;;;2.90;99.90;;;;;;5033557;28;21015;-62
2023/01/20 10:12:09;;;;;;;25.87;16.97;;;2.90;99.90;;;;;;5033643;28;20813;-61
2023/01/20 10:14:41;;;;;;;28.00;17.53;;;2.90;99.90;;;;;;5028539;28;20475;-61
2023/01/20 10:17:16;;;;;;;25.90;15.40;;;3.00;99.90;;;;;;5014133;28;20477;-61
2023/01/20 10:19:49;;;;;;;27.67;16.50;;;3.10;99.90;;;;;;5013683;28;20466;-61
2023/01/20 10:22:21;;;;;;;22.87;15.67;;;3.10;99.90;;;;;;5013975;28;20468;-61
2023/01/20 10:24:54;;;;;;;27.37;15.73;;;3.00;99.90;;;;;;5013687;28;20455;-62
2023/01/20 10:27:27;;;;;;;25.93;15.63;;;3.00;99.90;;;;;;5016274;28;20468;-61
2023/01/20 10:30:03;;;;;;;29.10;16.67;;;3.10;99.90;;;;;;5045067;28;20481;-61
2023/01/20 10:32:35;;;;;;;27.50;17.03;;;3.10;99.90;;;;;;5052888;28;20472;-61
2023/01/20 10:35:14;;;;;;;25.10;15.50;;;3.00;99.90;;;;;;5045054;28;20530;-61
2023/01/20 10:37:42;;;;;;;26.13;16.27;;;3.00;99.90;;;;;;5036420;28;20473;-61
2023/01/20 10:40:19;;;;;;;24.97;16.70;;;2.90;99.90;;;;;;5032689;28;20551;-62
2023/01/20 10:42:53;;;;;;;27.67;17.33;;;3.00;99.90;;;;;;5032491;28;20462;-61
2023/01/20 10:45:30;;;;;;;28.40;17.30;;;3.00;99.90;;;;;;5031142;28;20459;-61
2023/01/20 10:48:08;;;;;;;25.37;15.80;;;3.00;99.90;;;;;;5030580;28;20475;-61
2023/01/20 10:50:51;;;;;;;28.73;16.07;;;3.00;99.90;;;;;;5030458;28;20488;-62
2023/01/20 10:53:49;;;;;;;22.03;14.40;;;3.10;99.90;;;;;;5031146;28;20475;-61
2023/01/20 10:56:34;;;;;;;27.07;16.97;;;3.20;99.90;;;;;;5029884;28;20457;-62
2023/01/20 10:59:08;;;;;;;23.57;15.27;;;3.30;99.90;;;;;;5034430;28;20480;-61
2023/01/20 11:01:37;;;;;;;27.23;16.30;;;3.20;99.90;;;;;;5032562;28;20471;-61
2023/01/20 11:04:05;;;;;;;23.23;15.37;;;3.30;99.90;;;;;;5032753;28;20833;-61
2023/01/20 11:06:33;;;;;;;26.47;15.97;;;3.40;99.90;;;;;;5033075;28;20455;-61
2023/01/20 11:09:18;;;;;;;25.83;16.73;;;3.40;99.90;;;;;;5034215;28;20993;-61
2023/01/20 11:11:47;;;;;;;27.83;16.97;;;3.50;99.90;;;;;;5049367;28;20485;-61
2023/01/20 11:14:17;;;;;;;24.17;16.40;;;3.50;99.90;;;;;;5045116;28;21025;-61
2023/01/20 11:16:47;;;;;;;23.87;15.97;;;3.60;99.90;;;;;;5031812;28;20482;-62
2023/01/20 11:19:15;;;;;;;26.30;16.47;;;3.70;99.90;;;;;;5032815;28;20518;-62
2023/01/20 11:21:43;;;;;;;23.23;14.53;;;3.80;99.90;;;;;;5032214;28;20970;-62
2023/01/20 11:24:38;;;;;;;25.33;16.77;;;3.90;99.90;;;;;;5032388;28;20463;-61
2023/01/20 11:27:10;;;;;;;21.73;14.70;;;3.90;99.90;;;;;;5031023;28;20985;-61
2023/01/20 11:29:42;;;;;;;32.50;17.33;;;4.00;99.90;;;;;;5030832;28;20474;-62
2023/01/20 11:32:32;;;;;;;24.03;16.53;;;4.10;99.90;;;;;;5031596;28;20487;-61
2023/01/20 11:35:02;;;;;;;25.13;15.60;;;4.30;99.90;;;;;;5033475;28;20463;-62
2023/01/20 11:37:37;;;;;;;27.67;16.50;;;4.50;99.90;;;;;;5031860;28;20471;-62
2023/01/20 11:40:22;;;;;;;25.30;16.13;;;4.70;99.90;;;;;;5032389;28;20556;-61
2023/01/20 11:42:51;;;;;;;23.37;15.60;;;4.80;99.90;;;;;;5029663;28;20490;-62
2023/01/20 11:45:27;;;;;;;24.20;16.27;;;5.00;99.90;;;;;;5030018;28;20462;-61
2023/01/20 11:48:02;;;;;;;23.90;15.87;;;5.30;99.90;;;;;;5029334;28;20461;-61
2023/01/20 11:50:38;;;;;;;22.07;15.67;;;5.40;99.90;;;;;;5031919;28;20985;-61
2023/01/20 11:53:30;;;;;;;27.47;17.30;;;5.40;99.90;;;;;;5030839;28;20549;-61
2023/01/20 11:56:01;;;;;;;26.90;17.30;;;5.20;99.90;;;;;;5026048;28;21064;-61
2023/01/20 11:58:32;;;;;;;23.87;16.03;;;5.10;99.90;;;;;;5036102;28;20796;-61
2023/01/20 12:01:04;;;;;;;24.70;16.33;;;5.00;99.90;;;;;;5030605;28;21018;-61
2023/01/20 12:03:54;;;;;;;23.43;15.63;;;4.90;99.90;;;;;;5029403;28;20474;-62
2023/01/20 12:06:25;;;;;;;22.00;14.63;;;4.80;99.90;;;;;;5034255;28;21104;-61
2023/01/20 12:08:58;;;;;;;23.63;15.37;;;4.90;99.90;;;;;;5033580;28;20474;-61
2023/01/20 12:11:30;;;;;;;23.70;16.00;;;4.90;99.90;;;;;;5037135;28;20483;-61
2023/01/20 12:14:21;;;;;;;23.60;15.40;;;4.90;99.90;;;;;;5035700;28;20811;-61
2023/01/20 12:17:15;;;;;;;23.53;15.27;;;4.80;99.90;;;;;;5015883;28;20475;-61
2023/01/20 12:20:09;;;;;;;23.47;14.97;;;4.70;99.90;;;;;;5027437;28;21679;-61
2023/01/20 12:22:45;;;;;;;25.73;16.57;;;4.50;99.90;;;;;;5038056;28;20842;-61
2023/01/20 12:25:20;;;;;;;24.57;15.80;;;4.40;99.90;;;;;;5034898;28;20471;-61
2023/01/20 12:27:54;;;;;;;25.27;15.83;;;4.30;99.90;;;;;;5036371;28;20466;-61
2023/01/20 12:30:42;;;;;;;23.20;16.07;;;4.20;99.90;;;;;;5035203;28;21012;-61
2023/01/20 12:33:19;;;;;;;23.87;16.23;;;4.20;99.90;;;;;;5045249;28;20493;-61
2023/01/20 12:36:05;;;;;;;26.80;16.90;;;4.30;99.90;;;;;;5045353;28;20476;-61
2023/01/20 12:38:40;;;;;;;22.70;15.83;;;4.30;99.90;;;;;;5032824;28;20471;-61
2023/01/20 12:41:16;;;;;;;25.30;15.83;;;4.40;99.90;;;;;;5034349;28;20489;-61
2023/01/20 12:43:56;;;;;;;25.83;17.10;;;4.50;99.90;;;;;;5035066;28;20463;-61
2023/01/20 12:46:37;;;;;;;26.30;16.80;;;4.50;99.90;;;;;;5035258;28;20823;-61
2023/01/20 12:49:32;;;;;;;27.87;16.43;;;4.50;99.90;;;;;;5035262;28;20474;-61
2023/01/20 12:52:26;;;;;;;25.40;16.20;;;4.60;99.90;;;;;;5029445;28;20505;-61
2023/01/20 12:55:15;;;;;;;27.23;17.43;;;4.50;99.90;;;;;;5034700;28;20561;-61
2023/01/20 12:57:58;;;;;;;28.33;17.17;;;4.40;99.90;;;;;;5034000;28;20477;-61
2023/01/20 13:00:48;;;;;;;25.90;17.27;;;4.40;99.90;;;;;;5036577;28;20834;-59
2023/01/20 13:03:42;;;;;;;25.67;18.37;;;4.40;99.90;;;;;;5032285;28;20466;-61
2023/01/20 13:06:49;;;;;;;27.43;18.57;;;4.40;99.90;;;;;;5038525;28;20471;-61
2023/01/20 13:09:29;;;;;;;26.73;17.30;;;4.40;99.90;;;;;;5054803;28;20461;-61
2023/01/20 13:12:09;;;;;;;25.93;17.73;;;4.40;99.90;;;;;;5054919;28;20485;-61
2023/01/20 13:14:42;;;;;;;27.30;18.03;;;4.30;99.90;;;;;;5046930;28;20525;-61
2023/01/20 13:17:19;;;;;;;28.80;17.60;;;4.30;99.90;;;;;;5033996;28;20475;-61
2023/01/20 13:19:48;;;;;;;26.03;16.93;;;4.20;99.90;;;;;;5034576;28;20826;-61